sensor_id;sensor_type;location;lat;lon;timestamp;temperature;humidity
28530;DHT22;15737;49.760;6.632;2023-03-01T00:01:52;0.00;78.70
28530;DHT22;15737;49.760;6.632;2023-03-01T00:04:17;0.00;78.70
28530;DHT22;15737;49.760;6.632;2023-03-01T00:06:43;-0.10;78.80
28530;DHT22;15737;49.760;6.632;2023-03-01T00:09:12;-0.10;79.00
28530;DHT22;15737;49.760;6.632;2023-03-01T00:11:38;-0.20;79.20
28530;DHT22;15737;49.760;6.632;2023-03-01T00:14:04;-0.20;79.40
28530;DHT22;15737;49.760;6.632;2023-03-01T00:16:35;-0.20;79.70
28530;DHT22;15737;49.760;6.632;2023-03-01T00:19:02;-0.20;79.80
28530;DHT22;15737;49.760;6.632;2023-03-01T00:21:27;-0.20;79.90
28530;DHT22;15737;49.760;6.632;2023-03-01T00:23:53;-0.20;80.00
28530;DHT22;15737;49.760;6.632;2023-03-01T00:26:21;-0.20;80.20
28530;DHT22;15737;49.760;6.632;2023-03-01T00:28:46;-0.20;80.30
28530;DHT22;15737;49.760;6.632;2023-03-01T00:31:21;-0.20;80.40
28530;DHT22;15737;49.760;6.632;2023-03-01T00:33:47;-0.20;80.30
28530;DHT22;15737;49.760;6.632;2023-03-01T00:36:14;-0.20;80.50
28530;DHT22;15737;49.760;6.632;2023-03-01T00:38:42;-0.30;80.50
28530;DHT22;15737;49.760;6.632;2023-03-01T00:41:14;-0.30;80.70
28530;DHT22;15737;49.760;6.632;2023-03-01T00:43:40;-0.20;80.80
28530;DHT22;15737;49.760;6.632;2023-03-01T00:46:08;-0.20;80.80
28530;DHT22;15737;49.760;6.632;2023-03-01T00:48:35;-0.30;80.90
28530;DHT22;15737;49.760;6.632;2023-03-01T00:51:09;-0.30;81.10
28530;DHT22;15737;49.760;6.632;2023-03-01T00:53:36;-0.30;81.20
28530;DHT22;15737;49.760;6.632;2023-03-01T00:56:02;-0.30;81.40
28530;DHT22;15737;49.760;6.632;2023-03-01T00:58:28;-0.30;81.40
28530;DHT22;15737;49.760;6.632;2023-03-01T01:00:54;-0.40;81.60
28530;DHT22;15737;49.760;6.632;2023-03-01T01:03:20;-0.40;81.80
28530;DHT22;15737;49.760;6.632;2023-03-01T01:05:45;-0.40;81.80
28530;DHT22;15737;49.760;6.632;2023-03-01T01:08:11;-0.40;82.10
28530;DHT22;15737;49.760;6.632;2023-03-01T01:10:37;-0.40;82.10
28530;DHT22;15737;49.760;6.632;2023-03-01T01:13:02;-0.40;82.20
28530;DHT22;15737;49.760;6.632;2023-03-01T01:15:28;-0.40;82.40
28530;DHT22;15737;49.760;6.632;2023-03-01T01:17:54;-0.40;82.40
28530;DHT22;15737;49.760;6.632;2023-03-01T01:20:20;-0.50;82.50
28530;DHT22;15737;49.760;6.632;2023-03-01T01:22:45;-0.60;82.80
28530;DHT22;15737;49.760;6.632;2023-03-01T01:25:11;-0.60;83.90
28530;DHT22;15737;49.760;6.632;2023-03-01T01:27:36;-0.60;83.30
28530;DHT22;15737;49.760;6.632;2023-03-01T01:30:03;-0.50;83.50
28530;DHT22;15737;49.760;6.632;2023-03-01T01:32:29;-0.50;83.50
28530;DHT22;15737;49.760;6.632;2023-03-01T01:34:54;-0.50;83.50
28530;DHT22;15737;49.760;6.632;2023-03-01T01:37:20;-0.50;83.50
28530;DHT22;15737;49.760;6.632;2023-03-01T01:39:46;-0.40;83.60
28530;DHT22;15737;49.760;6.632;2023-03-01T01:42:16;-0.40;83.50
28530;DHT22;15737;49.760;6.632;2023-03-01T01:44:44;-0.40;83.30
28530;DHT22;15737;49.760;6.632;2023-03-01T01:47:20;-0.40;83.30
28530;DHT22;15737;49.760;6.632;2023-03-01T01:49:54;-0.50;83.70
28530;DHT22;15737;49.760;6.632;2023-03-01T01:52:33;-0.50;83.70
28530;DHT22;15737;49.760;6.632;2023-03-01T01:55:04;-0.60;83.80
28530;DHT22;15737;49.760;6.632;2023-03-01T01:57:40;-0.60;84.20
28530;DHT22;15737;49.760;6.632;2023-03-01T02:00:13;-0.60;84.30
28530;DHT22;15737;49.760;6.632;2023-03-01T02:02:40;-0.60;84.60
28530;DHT22;15737;49.760;6.632;2023-03-01T02:05:20;-0.60;84.60
28530;DHT22;15737;49.760;6.632;2023-03-01T02:07:48;-0.60;84.50
28530;DHT22;15737;49.760;6.632;2023-03-01T02:10:14;-0.60;84.60
28530;DHT22;15737;49.760;6.632;2023-03-01T02:12:40;-0.60;84.70
28530;DHT22;15737;49.760;6.632;2023-03-01T02:15:06;-0.70;85.00
28530;DHT22;15737;49.760;6.632;2023-03-01T02:17:32;-0.80;85.50
28530;DHT22;15737;49.760;6.632;2023-03-01T02:22:28;-0.70;85.60
28530;DHT22;15737;49.760;6.632;2023-03-01T02:27:40;-0.50;85.50
28530;DHT22;15737;49.760;6.632;2023-03-01T02:30:11;-0.50;85.90
28530;DHT22;15737;49.760;6.632;2023-03-01T02:32:39;-0.50;85.10
28530;DHT22;15737;49.760;6.632;2023-03-01T02:35:10;-0.50;85.10
28530;DHT22;15737;49.760;6.632;2023-03-01T02:37:37;-0.60;85.20
28530;DHT22;15737;49.760;6.632;2023-03-01T02:40:08;-0.50;85.40
28530;DHT22;15737;49.760;6.632;2023-03-01T02:42:41;-0.60;85.40
28530;DHT22;15737;49.760;6.632;2023-03-01T02:45:09;-0.70;86.00
28530;DHT22;15737;49.760;6.632;2023-03-01T02:47:36;-0.70;86.60
28530;DHT22;15737;49.760;6.632;2023-03-01T02:50:01;-0.70;86.70
28530;DHT22;15737;49.760;6.632;2023-03-01T02:52:52;-0.70;86.60
28530;DHT22;15737;49.760;6.632;2023-03-01T02:55:18;-0.60;86.60
28530;DHT22;15737;49.760;6.632;2023-03-01T02:57:46;-0.60;86.70
28530;DHT22;15737;49.760;6.632;2023-03-01T03:00:19;-0.60;86.80
28530;DHT22;15737;49.760;6.632;2023-03-01T03:02:51;-0.60;86.70
28530;DHT22;15737;49.760;6.632;2023-03-01T03:05:31;-0.50;86.70
28530;DHT22;15737;49.760;6.632;2023-03-01T03:07:58;-0.50;86.50
28530;DHT22;15737;49.760;6.632;2023-03-01T03:10:33;-0.50;86.50
28530;DHT22;15737;49.760;6.632;2023-03-01T03:13:01;-0.50;86.50
28530;DHT22;15737;49.760;6.632;2023-03-01T03:15:28;-0.50;86.80
28530;DHT22;15737;49.760;6.632;2023-03-01T03:17:56;-0.40;86.80
28530;DHT22;15737;49.760;6.632;2023-03-01T03:20:25;-0.50;86.80
28530;DHT22;15737;49.760;6.632;2023-03-01T03:22:53;-0.60;87.20
28530;DHT22;15737;49.760;6.632;2023-03-01T03:25:20;-0.80;87.60
28530;DHT22;15737;49.760;6.632;2023-03-01T03:27:48;-0.80;88.10
28530;DHT22;15737;49.760;6.632;2023-03-01T03:30:17;-0.70;89.20
28530;DHT22;15737;49.760;6.632;2023-03-01T03:32:44;-0.50;88.30
28530;DHT22;15737;49.760;6.632;2023-03-01T03:35:22;-0.50;87.90
28530;DHT22;15737;49.760;6.632;2023-03-01T03:37:48;-0.50;87.80
28530;DHT22;15737;49.760;6.632;2023-03-01T03:40:36;-0.60;88.20
28530;DHT22;15737;49.760;6.632;2023-03-01T03:43:04;-0.60;88.40
28530;DHT22;15737;49.760;6.632;2023-03-01T03:45:30;-0.70;88.40
28530;DHT22;15737;49.760;6.632;2023-03-01T03:47:58;-0.70;88.40
28530;DHT22;15737;49.760;6.632;2023-03-01T03:50:24;-0.80;88.70
28530;DHT22;15737;49.760;6.632;2023-03-01T03:52:50;-0.90;89.00
28530;DHT22;15737;49.760;6.632;2023-03-01T03:55:15;-0.90;89.40
28530;DHT22;15737;49.760;6.632;2023-03-01T03:57:46;-1.00;89.70
28530;DHT22;15737;49.760;6.632;2023-03-01T04:00:19;-1.00;90.00
28530;DHT22;15737;49.760;6.632;2023-03-01T04:02:47;-1.00;90.40
28530;DHT22;15737;49.760;6.632;2023-03-01T04:05:15;-0.90;90.10
28530;DHT22;15737;49.760;6.632;2023-03-01T04:07:41;-0.90;90.30
28530;DHT22;15737;49.760;6.632;2023-03-01T04:10:10;-1.00;90.30
28530;DHT22;15737;49.760;6.632;2023-03-01T04:12:36;-1.00;90.40
28530;DHT22;15737;49.760;6.632;2023-03-01T04:15:03;-1.00;90.50
28530;DHT22;15737;49.760;6.632;2023-03-01T04:17:43;-1.00;90.50
28530;DHT22;15737;49.760;6.632;2023-03-01T04:20:14;-0.90;90.50
28530;DHT22;15737;49.760;6.632;2023-03-01T04:22:43;-0.80;90.50
28530;DHT22;15737;49.760;6.632;2023-03-01T04:25:12;-0.80;90.40
28530;DHT22;15737;49.760;6.632;2023-03-01T04:27:40;-0.70;90.30
28530;DHT22;15737;49.760;6.632;2023-03-01T04:30:07;-0.80;90.20
28530;DHT22;15737;49.760;6.632;2023-03-01T04:32:33;-1.00;90.40
28530;DHT22;15737;49.760;6.632;2023-03-01T04:34:59;-1.00;90.60
28530;DHT22;15737;49.760;6.632;2023-03-01T04:37:25;-0.90;90.70
28530;DHT22;15737;49.760;6.632;2023-03-01T04:39:51;-0.80;90.70
28530;DHT22;15737;49.760;6.632;2023-03-01T04:42:17;-0.80;90.60
28530;DHT22;15737;49.760;6.632;2023-03-01T04:44:43;-0.70;90.70
28530;DHT22;15737;49.760;6.632;2023-03-01T04:47:09;-0.70;90.70
28530;DHT22;15737;49.760;6.632;2023-03-01T04:49:35;-0.70;90.70
28530;DHT22;15737;49.760;6.632;2023-03-01T04:52:00;-0.60;90.70
28530;DHT22;15737;49.760;6.632;2023-03-01T04:54:34;-0.60;90.80
28530;DHT22;15737;49.760;6.632;2023-03-01T04:56:59;-0.70;90.80
28530;DHT22;15737;49.760;6.632;2023-03-01T04:59:25;-0.70;90.90
28530;DHT22;15737;49.760;6.632;2023-03-01T05:01:52;-0.60;91.00
28530;DHT22;15737;49.760;6.632;2023-03-01T05:04:18;-0.50;90.90
28530;DHT22;15737;49.760;6.632;2023-03-01T05:06:43;-0.50;90.90
28530;DHT22;15737;49.760;6.632;2023-03-01T05:09:09;-0.50;91.00
28530;DHT22;15737;49.760;6.632;2023-03-01T05:11:36;-0.60;91.10
28530;DHT22;15737;49.760;6.632;2023-03-01T05:14:03;-0.50;91.10
28530;DHT22;15737;49.760;6.632;2023-03-01T05:16:29;-0.50;91.10
28530;DHT22;15737;49.760;6.632;2023-03-01T05:18:55;-0.50;91.30
28530;DHT22;15737;49.760;6.632;2023-03-01T05:21:22;-0.60;91.30
28530;DHT22;15737;49.760;6.632;2023-03-01T05:23:47;-0.60;91.40
28530;DHT22;15737;49.760;6.632;2023-03-01T05:26:13;-0.60;91.60
28530;DHT22;15737;49.760;6.632;2023-03-01T05:28:43;-0.70;91.70
28530;DHT22;15737;49.760;6.632;2023-03-01T05:31:09;-0.60;91.80
28530;DHT22;15737;49.760;6.632;2023-03-01T05:33:39;-0.60;91.90
28530;DHT22;15737;49.760;6.632;2023-03-01T05:36:09;-0.60;91.80
28530;DHT22;15737;49.760;6.632;2023-03-01T05:38:37;-0.60;91.90
28530;DHT22;15737;49.760;6.632;2023-03-01T05:41:02;-0.70;92.00
28530;DHT22;15737;49.760;6.632;2023-03-01T05:43:31;-0.70;92.10
28530;DHT22;15737;49.760;6.632;2023-03-01T05:45:59;-0.70;92.20
28530;DHT22;15737;49.760;6.632;2023-03-01T05:48:25;-0.70;92.30
28530;DHT22;15737;49.760;6.632;2023-03-01T05:50:51;-0.70;92.30
28530;DHT22;15737;49.760;6.632;2023-03-01T05:53:18;-0.70;92.40
28530;DHT22;15737;49.760;6.632;2023-03-01T05:55:47;-0.80;92.40
28530;DHT22;15737;49.760;6.632;2023-03-01T05:58:15;-0.80;92.50
28530;DHT22;15737;49.760;6.632;2023-03-01T06:00:43;-0.80;92.70
28530;DHT22;15737;49.760;6.632;2023-03-01T06:03:11;-0.80;93.10
28530;DHT22;15737;49.760;6.632;2023-03-01T06:05:37;-0.80;92.80
28530;DHT22;15737;49.760;6.632;2023-03-01T06:08:03;-0.90;92.90
28530;DHT22;15737;49.760;6.632;2023-03-01T06:10:29;-0.80;93.00
28530;DHT22;15737;49.760;6.632;2023-03-01T06:12:55;-0.90;93.00
28530;DHT22;15737;49.760;6.632;2023-03-01T06:15:21;-0.90;93.10
28530;DHT22;15737;49.760;6.632;2023-03-01T06:17:47;-0.90;93.20
28530;DHT22;15737;49.760;6.632;2023-03-01T06:20:15;-0.90;93.20
28530;DHT22;15737;49.760;6.632;2023-03-01T06:22:42;-0.90;93.20
28530;DHT22;15737;49.760;6.632;2023-03-01T06:25:09;-0.90;93.30
28530;DHT22;15737;49.760;6.632;2023-03-01T06:27:36;-0.90;93.40
28530;DHT22;15737;49.760;6.632;2023-03-01T06:30:02;-0.80;93.40
28530;DHT22;15737;49.760;6.632;2023-03-01T06:32:28;-0.80;93.50
28530;DHT22;15737;49.760;6.632;2023-03-01T06:34:53;-0.80;93.40
28530;DHT22;15737;49.760;6.632;2023-03-01T06:37:19;-0.80;93.40
28530;DHT22;15737;49.760;6.632;2023-03-01T06:39:44;-0.70;93.40
28530;DHT22;15737;49.760;6.632;2023-03-01T06:42:10;-0.60;93.40
28530;DHT22;15737;49.760;6.632;2023-03-01T06:44:37;-0.60;93.40
28530;DHT22;15737;49.760;6.632;2023-03-01T06:47:03;-0.50;93.40
28530;DHT22;15737;49.760;6.632;2023-03-01T06:49:28;-0.50;93.40
28530;DHT22;15737;49.760;6.632;2023-03-01T06:51:54;-0.40;93.30
28530;DHT22;15737;49.760;6.632;2023-03-01T06:54:19;-0.20;93.20
28530;DHT22;15737;49.760;6.632;2023-03-01T06:56:48;-0.20;93.10
28530;DHT22;15737;49.760;6.632;2023-03-01T06:59:14;-0.10;93.20
28530;DHT22;15737;49.760;6.632;2023-03-01T07:01:39;0.00;93.20
28530;DHT22;15737;49.760;6.632;2023-03-01T07:04:05;0.00;93.10
28530;DHT22;15737;49.760;6.632;2023-03-01T07:06:30;0.30;93.10
28530;DHT22;15737;49.760;6.632;2023-03-01T07:08:56;0.50;92.80
28530;DHT22;15737;49.760;6.632;2023-03-01T07:11:21;0.60;92.30
28530;DHT22;15737;49.760;6.632;2023-03-01T07:13:47;0.70;92.20
28530;DHT22;15737;49.760;6.632;2023-03-01T07:16:13;0.90;92.10
28530;DHT22;15737;49.760;6.632;2023-03-01T07:18:40;1.00;91.90
28530;DHT22;15737;49.760;6.632;2023-03-01T07:21:07;1.00;91.70
28530;DHT22;15737;49.760;6.632;2023-03-01T07:23:33;1.10;91.70
28530;DHT22;15737;49.760;6.632;2023-03-01T07:25:58;1.50;91.60
28530;DHT22;15737;49.760;6.632;2023-03-01T07:28:24;1.70;91.00
28530;DHT22;15737;49.760;6.632;2023-03-01T07:30:49;2.00;90.80
28530;DHT22;15737;49.760;6.632;2023-03-01T07:33:16;2.20;90.40
28530;DHT22;15737;49.760;6.632;2023-03-01T07:35:41;2.60;89.80
28530;DHT22;15737;49.760;6.632;2023-03-01T07:38:07;2.90;88.60
28530;DHT22;15737;49.760;6.632;2023-03-01T07:40:33;3.30;87.60
28530;DHT22;15737;49.760;6.632;2023-03-01T07:42:59;3.60;86.80
28530;DHT22;15737;49.760;6.632;2023-03-01T07:45:25;4.20;85.90
28530;DHT22;15737;49.760;6.632;2023-03-01T07:47:54;4.50;84.00
28530;DHT22;15737;49.760;6.632;2023-03-01T07:50:21;4.80;83.50
28530;DHT22;15737;49.760;6.632;2023-03-01T07:52:48;5.40;82.30
28530;DHT22;15737;49.760;6.632;2023-03-01T07:55:15;6.30;80.10
28530;DHT22;15737;49.760;6.632;2023-03-01T07:57:41;7.10;78.10
28530;DHT22;15737;49.760;6.632;2023-03-01T08:00:07;7.70;77.00
28530;DHT22;15737;49.760;6.632;2023-03-01T08:02:33;8.10;75.20
28530;DHT22;15737;49.760;6.632;2023-03-01T08:04:59;7.40;75.00
28530;DHT22;15737;49.760;6.632;2023-03-01T08:07:24;7.00;77.10
28530;DHT22;15737;49.760;6.632;2023-03-01T08:09:50;7.10;77.40
28530;DHT22;15737;49.760;6.632;2023-03-01T08:12:15;7.00;77.00
28530;DHT22;15737;49.760;6.632;2023-03-01T08:14:42;6.80;76.60
28530;DHT22;15737;49.760;6.632;2023-03-01T08:17:08;6.40;77.40
28530;DHT22;15737;49.760;6.632;2023-03-01T08:19:33;5.80;78.20
28530;DHT22;15737;49.760;6.632;2023-03-01T08:22:02;5.60;79.40
28530;DHT22;15737;49.760;6.632;2023-03-01T08:24:28;5.50;78.90
28530;DHT22;15737;49.760;6.632;2023-03-01T08:26:54;5.10;79.90
28530;DHT22;15737;49.760;6.632;2023-03-01T08:29:19;5.10;80.20
28530;DHT22;15737;49.760;6.632;2023-03-01T08:31:45;5.00;80.50
28530;DHT22;15737;49.760;6.632;2023-03-01T08:34:13;4.90;80.10
28530;DHT22;15737;49.760;6.632;2023-03-01T08:36:41;4.80;80.50
28530;DHT22;15737;49.760;6.632;2023-03-01T08:39:08;4.60;80.50
28530;DHT22;15737;49.760;6.632;2023-03-01T08:41:34;4.70;81.00
28530;DHT22;15737;49.760;6.632;2023-03-01T08:44:00;5.30;80.70
28530;DHT22;15737;49.760;6.632;2023-03-01T08:46:34;6.00;79.20
28530;DHT22;15737;49.760;6.632;2023-03-01T08:49:00;6.80;77.50
28530;DHT22;15737;49.760;6.632;2023-03-01T08:51:26;7.60;75.60
28530;DHT22;15737;49.760;6.632;2023-03-01T08:53:52;7.90;73.70
28530;DHT22;15737;49.760;6.632;2023-03-01T08:56:18;7.90;73.50
28530;DHT22;15737;49.760;6.632;2023-03-01T08:58:45;8.50;73.00
28530;DHT22;15737;49.760;6.632;2023-03-01T09:01:13;9.00;71.30
28530;DHT22;15737;49.760;6.632;2023-03-01T09:08:49;8.20;72.50
28530;DHT22;15737;49.760;6.632;2023-03-01T09:11:21;8.80;72.10
28530;DHT22;15737;49.760;6.632;2023-03-01T09:13:47;9.30;70.50
28530;DHT22;15737;49.760;6.632;2023-03-01T09:16:16;9.90;70.40
28530;DHT22;15737;49.760;6.632;2023-03-01T09:18:42;10.70;68.80
28530;DHT22;15737;49.760;6.632;2023-03-01T09:21:18;11.20;66.40
28530;DHT22;15737;49.760;6.632;2023-03-01T09:23:47;11.60;64.60
28530;DHT22;15737;49.760;6.632;2023-03-01T09:26:19;11.10;63.50
28530;DHT22;15737;49.760;6.632;2023-03-01T09:28:49;10.50;64.40
28530;DHT22;15737;49.760;6.632;2023-03-01T09:31:25;10.60;64.80
28530;DHT22;15737;49.760;6.632;2023-03-01T09:33:55;11.20;64.40
28530;DHT22;15737;49.760;6.632;2023-03-01T09:36:23;10.40;63.70
28530;DHT22;15737;49.760;6.632;2023-03-01T09:38:51;9.90;65.90
28530;DHT22;15737;49.760;6.632;2023-03-01T09:46:13;9.10;64.90
28530;DHT22;15737;49.760;6.632;2023-03-01T09:48:50;8.90;65.30
28530;DHT22;15737;49.760;6.632;2023-03-01T09:51:30;9.30;64.40
28530;DHT22;15737;49.760;6.632;2023-03-01T09:53:57;9.80;63.20
28530;DHT22;15737;49.760;6.632;2023-03-01T09:56:38;10.60;60.40
28530;DHT22;15737;49.760;6.632;2023-03-01T10:07:20;14.20;55.70
28530;DHT22;15737;49.760;6.632;2023-03-01T10:09:48;15.40;54.00
28530;DHT22;15737;49.760;6.632;2023-03-01T10:12:27;15.80;52.70
28530;DHT22;15737;49.760;6.632;2023-03-01T10:15:18;15.60;52.30
28530;DHT22;15737;49.760;6.632;2023-03-01T10:17:50;16.00;51.60
28530;DHT22;15737;49.760;6.632;2023-03-01T10:20:30;15.60;51.40
28530;DHT22;15737;49.760;6.632;2023-03-01T10:22:59;15.30;51.40
28530;DHT22;15737;49.760;6.632;2023-03-01T10:31:18;14.00;51.30
28530;DHT22;15737;49.760;6.632;2023-03-01T10:33:44;14.00;51.30
28530;DHT22;15737;49.760;6.632;2023-03-01T10:36:10;14.00;51.30
28530;DHT22;15737;49.760;6.632;2023-03-01T10:41:26;14.70;51.20
28530;DHT22;15737;49.760;6.632;2023-03-01T10:43:54;14.70;50.60
28530;DHT22;15737;49.760;6.632;2023-03-01T10:46:30;15.00;50.80
28530;DHT22;15737;49.760;6.632;2023-03-01T10:49:13;15.90;50.60
28530;DHT22;15737;49.760;6.632;2023-03-01T10:51:41;16.90;50.00
28530;DHT22;15737;49.760;6.632;2023-03-01T10:54:17;16.90;48.80
28530;DHT22;15737;49.760;6.632;2023-03-01T10:56:54;15.70;48.90
28530;DHT22;15737;49.760;6.632;2023-03-01T10:59:29;14.60;50.30
28530;DHT22;15737;49.760;6.632;2023-03-01T11:02:18;14.90;50.90
28530;DHT22;15737;49.760;6.632;2023-03-01T11:05:01;15.40;50.60
28530;DHT22;15737;49.760;6.632;2023-03-01T11:07:27;15.60;49.90
28530;DHT22;15737;49.760;6.632;2023-03-01T11:12:21;15.20;50.50
28530;DHT22;15737;49.760;6.632;2023-03-01T11:14:53;16.00;49.80
28530;DHT22;15737;49.760;6.632;2023-03-01T11:17:30;16.00;49.40
28530;DHT22;15737;49.760;6.632;2023-03-01T11:22:27;14.70;49.50
28530;DHT22;15737;49.760;6.632;2023-03-01T11:24:54;14.30;50.30
28530;DHT22;15737;49.760;6.632;2023-03-01T11:27:32;14.00;50.20
28530;DHT22;15737;49.760;6.632;2023-03-01T11:30:13;13.70;50.90
28530;DHT22;15737;49.760;6.632;2023-03-01T11:32:43;14.20;51.00
28530;DHT22;15737;49.760;6.632;2023-03-01T11:35:14;14.70;50.30
28530;DHT22;15737;49.760;6.632;2023-03-01T11:40:40;13.40;50.50
28530;DHT22;15737;49.760;6.632;2023-03-01T11:43:21;13.30;51.80
28530;DHT22;15737;49.760;6.632;2023-03-01T11:48:52;14.80;51.30
28530;DHT22;15737;49.760;6.632;2023-03-01T11:51:38;15.40;50.50
28530;DHT22;15737;49.760;6.632;2023-03-01T11:54:35;15.30;50.00
28530;DHT22;15737;49.760;6.632;2023-03-01T11:59:54;15.00;50.20
28530;DHT22;15737;49.760;6.632;2023-03-01T12:02:55;14.50;50.10
28530;DHT22;15737;49.760;6.632;2023-03-01T12:11:03;14.10;50.60
28530;DHT22;15737;49.760;6.632;2023-03-01T12:13:49;14.40;50.70
28530;DHT22;15737;49.760;6.632;2023-03-01T12:24:54;14.00;50.20
28530;DHT22;15737;49.760;6.632;2023-03-01T12:33:34;13.40;51.40
28530;DHT22;15737;49.760;6.632;2023-03-01T12:42:01;13.20;50.80
28530;DHT22;15737;49.760;6.632;2023-03-01T12:47:23;13.00;51.20
28530;DHT22;15737;49.760;6.632;2023-03-01T12:49:56;12.80;51.10
28530;DHT22;15737;49.760;6.632;2023-03-01T12:54:56;13.60;51.60
28530;DHT22;15737;49.760;6.632;2023-03-01T13:00:33;14.40;50.60
28530;DHT22;15737;49.760;6.632;2023-03-01T13:06:15;14.40;50.70
28530;DHT22;15737;49.760;6.632;2023-03-01T13:08:48;14.10;50.40
28530;DHT22;15737;49.760;6.632;2023-03-01T13:11:20;13.60;50.40
28530;DHT22;15737;49.760;6.632;2023-03-01T13:13:46;13.20;50.90
28530;DHT22;15737;49.760;6.632;2023-03-01T13:16:40;13.20;51.40
28530;DHT22;15737;49.760;6.632;2023-03-01T13:19:10;13.60;51.10
28530;DHT22;15737;49.760;6.632;2023-03-01T13:21:38;13.70;51.30
28530;DHT22;15737;49.760;6.632;2023-03-01T13:24:03;14.30;50.80
28530;DHT22;15737;49.760;6.632;2023-03-01T13:26:29;14.60;50.60
28530;DHT22;15737;49.760;6.632;2023-03-01T13:28:56;14.60;50.20
28530;DHT22;15737;49.760;6.632;2023-03-01T13:33:52;14.30;50.70
28530;DHT22;15737;49.760;6.632;2023-03-01T13:44:25;14.70;50.70
28530;DHT22;15737;49.760;6.632;2023-03-01T13:49:56;14.30;50.40
28530;DHT22;15737;49.760;6.632;2023-03-01T13:52:45;13.50;50.30
28530;DHT22;15737;49.760;6.632;2023-03-01T13:57:43;13.50;50.90
28530;DHT22;15737;49.760;6.632;2023-03-01T14:00:35;13.00;50.90
28530;DHT22;15737;49.760;6.632;2023-03-01T14:05:39;13.50;51.60
28530;DHT22;15737;49.760;6.632;2023-03-01T14:08:17;14.20;50.90
28530;DHT22;15737;49.760;6.632;2023-03-01T14:11:08;13.90;50.30
28530;DHT22;15737;49.760;6.632;2023-03-01T14:19:26;12.90;50.90
28530;DHT22;15737;49.760;6.632;2023-03-01T14:22:21;12.50;51.20
28530;DHT22;15737;49.760;6.632;2023-03-01T14:27:15;12.60;51.40
28530;DHT22;15737;49.760;6.632;2023-03-01T14:29:41;12.40;51.20
28530;DHT22;15737;49.760;6.632;2023-03-01T14:32:21;11.80;51.40
28530;DHT22;15737;49.760;6.632;2023-03-01T14:34:50;11.30;51.80
28530;DHT22;15737;49.760;6.632;2023-03-01T14:37:28;10.90;52.30
28530;DHT22;15737;49.760;6.632;2023-03-01T14:39:55;11.00;52.80
28530;DHT22;15737;49.760;6.632;2023-03-01T14:42:23;11.30;52.70
28530;DHT22;15737;49.760;6.632;2023-03-01T14:44:52;11.30;52.20
28530;DHT22;15737;49.760;6.632;2023-03-01T14:47:31;11.10;52.50
28530;DHT22;15737;49.760;6.632;2023-03-01T14:50:03;11.00;52.70
28530;DHT22;15737;49.760;6.632;2023-03-01T14:52:36;10.90;52.70
28530;DHT22;15737;49.760;6.632;2023-03-01T14:55:05;10.60;53.00
28530;DHT22;15737;49.760;6.632;2023-03-01T14:57:31;10.30;53.40
28530;DHT22;15737;49.760;6.632;2023-03-01T14:59:59;10.20;53.60
28530;DHT22;15737;49.760;6.632;2023-03-01T15:02:28;10.10;53.70
28530;DHT22;15737;49.760;6.632;2023-03-01T15:04:58;10.30;53.90
28530;DHT22;15737;49.760;6.632;2023-03-01T15:07:29;10.50;53.50
28530;DHT22;15737;49.760;6.632;2023-03-01T15:09:55;10.70;53.40
28530;DHT22;15737;49.760;6.632;2023-03-01T15:14:53;11.00;53.20
28530;DHT22;15737;49.760;6.632;2023-03-01T15:19:46;10.80;53.20
28530;DHT22;15737;49.760;6.632;2023-03-01T15:22:15;10.50;53.50
28530;DHT22;15737;49.760;6.632;2023-03-01T15:24:41;10.30;53.50
28530;DHT22;15737;49.760;6.632;2023-03-01T15:27:16;10.40;53.90
28530;DHT22;15737;49.760;6.632;2023-03-01T15:29:49;10.70;53.80
28530;DHT22;15737;49.760;6.632;2023-03-01T15:32:30;10.60;53.90
28530;DHT22;15737;49.760;6.632;2023-03-01T15:34:57;10.50;54.00
28530;DHT22;15737;49.760;6.632;2023-03-01T15:37:48;10.30;54.10
28530;DHT22;15737;49.760;6.632;2023-03-01T15:40:28;10.20;54.20
28530;DHT22;15737;49.760;6.632;2023-03-01T15:43:01;10.20;54.30
28530;DHT22;15737;49.760;6.632;2023-03-01T15:45:29;10.00;54.00
28530;DHT22;15737;49.760;6.632;2023-03-01T15:47:57;9.60;55.50
28530;DHT22;15737;49.760;6.632;2023-03-01T15:50:34;9.50;55.10
28530;DHT22;15737;49.760;6.632;2023-03-01T15:53:05;9.40;55.20
28530;DHT22;15737;49.760;6.632;2023-03-01T15:55:32;9.40;55.30
28530;DHT22;15737;49.760;6.632;2023-03-01T16:00:44;9.20;55.10
28530;DHT22;15737;49.760;6.632;2023-03-01T16:03:11;9.00;55.60
28530;DHT22;15737;49.760;6.632;2023-03-01T16:05:38;8.90;55.20
28530;DHT22;15737;49.760;6.632;2023-03-01T16:08:05;9.00;55.30
28530;DHT22;15737;49.760;6.632;2023-03-01T16:10:32;9.00;55.00
28530;DHT22;15737;49.760;6.632;2023-03-01T16:12:59;8.80;54.90
28530;DHT22;15737;49.760;6.632;2023-03-01T16:15:30;8.60;55.00
28530;DHT22;15737;49.760;6.632;2023-03-01T16:17:57;8.40;55.10
28530;DHT22;15737;49.760;6.632;2023-03-01T16:20:26;8.40;55.30
28530;DHT22;15737;49.760;6.632;2023-03-01T16:22:52;8.30;55.30
28530;DHT22;15737;49.760;6.632;2023-03-01T16:25:19;8.10;55.20
28530;DHT22;15737;49.760;6.632;2023-03-01T16:27:47;8.00;55.50
28530;DHT22;15737;49.760;6.632;2023-03-01T16:32:40;7.90;55.50
28530;DHT22;15737;49.760;6.632;2023-03-01T16:35:07;7.80;55.50
28530;DHT22;15737;49.760;6.632;2023-03-01T16:37:33;7.80;55.60
28530;DHT22;15737;49.760;6.632;2023-03-01T16:39:59;7.80;55.60
28530;DHT22;15737;49.760;6.632;2023-03-01T16:42:25;7.80;55.70
28530;DHT22;15737;49.760;6.632;2023-03-01T16:44:55;7.70;55.70
28530;DHT22;15737;49.760;6.632;2023-03-01T16:47:21;7.60;55.70
28530;DHT22;15737;49.760;6.632;2023-03-01T16:49:46;7.30;55.90
28530;DHT22;15737;49.760;6.632;2023-03-01T16:52:12;7.20;56.00
28530;DHT22;15737;49.760;6.632;2023-03-01T16:54:37;7.10;56.20
28530;DHT22;15737;49.760;6.632;2023-03-01T16:57:03;7.00;56.40
28530;DHT22;15737;49.760;6.632;2023-03-01T16:59:29;6.80;56.60
28530;DHT22;15737;49.760;6.632;2023-03-01T17:01:55;6.70;56.70
28530;DHT22;15737;49.760;6.632;2023-03-01T17:04:20;6.60;56.80
28530;DHT22;15737;49.760;6.632;2023-03-01T17:06:46;6.50;56.90
28530;DHT22;15737;49.760;6.632;2023-03-01T17:09:13;6.50;57.20
28530;DHT22;15737;49.760;6.632;2023-03-01T17:11:39;6.40;57.30
28530;DHT22;15737;49.760;6.632;2023-03-01T17:14:05;6.30;57.50
28530;DHT22;15737;49.760;6.632;2023-03-01T17:16:30;6.20;57.60
28530;DHT22;15737;49.760;6.632;2023-03-01T17:18:56;6.10;57.60
28530;DHT22;15737;49.760;6.632;2023-03-01T17:23:56;6.00;58.00
28530;DHT22;15737;49.760;6.632;2023-03-01T17:26:21;6.00;57.90
28530;DHT22;15737;49.760;6.632;2023-03-01T17:28:47;5.90;58.10
28530;DHT22;15737;49.760;6.632;2023-03-01T17:31:17;5.80;58.40
28530;DHT22;15737;49.760;6.632;2023-03-01T17:33:43;5.80;58.60
28530;DHT22;15737;49.760;6.632;2023-03-01T17:36:08;5.70;59.10
28530;DHT22;15737;49.760;6.632;2023-03-01T17:38:34;5.70;58.80
28530;DHT22;15737;49.760;6.632;2023-03-01T17:41:02;5.60;58.90
28530;DHT22;15737;49.760;6.632;2023-03-01T17:43:28;5.60;59.10
28530;DHT22;15737;49.760;6.632;2023-03-01T17:45:55;5.50;59.10
28530;DHT22;15737;49.760;6.632;2023-03-01T17:48:20;5.50;59.40
28530;DHT22;15737;49.760;6.632;2023-03-01T17:50:46;5.50;59.50